Time;durP1;ratioP1;P1;durP2;ratioP2;P2;SDS_P1;SDS_P2;PMS_P1;PMS_P2;Temp;Humidity;BMP_temperature;BMP_pressure;BME280_temperature;BME280_humidity;BME280_pressure;Samples;Min_cycle;Max_cycle;Signal;HPM_P1;HPM_P2
2023/07/20 00:02:05;;;;;;;6.78;2.03;;;;;;;;;;4963225;28;20047;-63
2023/07/20 00:04:32;;;;;;;4.15;1.75;;;;;;;;;;4965000;28;20046;-61
2023/07/20 00:07:00;;;;;;;2.25;1.80;;;;;;;;;;4968182;28;20042;-61
2023/07/20 00:09:27;;;;;;;2.15;1.83;;;;;;;;;;4948495;28;20495;-60
2023/07/20 00:11:53;;;;;;;5.47;2.03;;;;;;;;;;4967886;28;20057;-61
2023/07/20 00:14:20;;;;;;;2.88;1.95;;;;;;;;;;4969340;28;20054;-61
2023/07/20 00:16:46;;;;;;;2.28;1.98;;;;;;;;;;4950144;28;20042;-60
2023/07/20 00:19:13;;;;;;;3.28;2.03;;;;;;;;;;4950206;28;20035;-61
2023/07/20 00:21:40;;;;;;;3.70;1.77;;;;;;;;;;4967472;28;20537;-60
2023/07/20 00:24:06;;;;;;;7.13;2.00;;;;;;;;;;4973956;28;20041;-60
2023/07/20 00:26:33;;;;;;;3.22;2.10;;;;;;;;;;4971147;28;20063;-60
2023/07/20 00:28:59;;;;;;;2.60;2.05;;;;;;;;;;4969503;28;20498;-60
2023/07/20 00:31:26;;;;;;;2.80;2.13;;;;;;;;;;4951432;28;20039;-60
2023/07/20 00:33:53;;;;;;;3.72;2.25;;;;;;;;;;4969344;28;20050;-60
2023/07/20 00:36:19;;;;;;;3.17;1.95;;;;;;;;;;4966210;28;20051;-61
2023/07/20 00:38:45;;;;;;;3.75;2.38;;;;;;;;;;4937004;28;20423;-60
2023/07/20 00:41:13;;;;;;;5.55;2.05;;;;;;;;;;4935724;28;20045;-60
2023/07/20 00:43:40;;;;;;;4.65;2.30;;;;;;;;;;4967211;28;20051;-61
2023/07/20 00:46:07;;;;;;;4.55;2.25;;;;;;;;;;4952556;28;20053;-60
2023/07/20 00:48:34;;;;;;;4.10;2.00;;;;;;;;;;4964456;28;20522;-60
2023/07/20 00:51:01;;;;;;;3.35;2.25;;;;;;;;;;4970173;28;20035;-60
2023/07/20 00:53:28;;;;;;;2.72;2.30;;;;;;;;;;4955161;28;20046;-60
2023/07/20 00:55:55;;;;;;;3.47;2.03;;;;;;;;;;4949549;28;20026;-60
2023/07/20 00:58:21;;;;;;;3.78;2.22;;;;;;;;;;4953156;28;20041;-60
2023/07/20 01:00:47;;;;;;;4.22;2.22;;;;;;;;;;4970318;28;20400;-60
2023/07/20 01:03:14;;;;;;;2.60;2.00;;;;;;;;;;4967835;28;20054;-60
2023/07/20 01:05:46;;;;;;;3.72;2.03;;;;;;;;;;4953034;28;20053;-62
2023/07/20 01:08:18;;;;;;;2.63;2.10;;;;;;;;;;4951916;28;20042;-62
2023/07/20 01:10:52;;;;;;;2.85;2.20;;;;;;;;;;4967873;28;20069;-62
2023/07/20 01:13:19;;;;;;;3.83;2.40;;;;;;;;;;4949155;28;20054;-62
2023/07/20 01:15:51;;;;;;;5.90;1.98;;;;;;;;;;4962922;28;20054;-62
2023/07/20 01:18:17;;;;;;;5.10;2.17;;;;;;;;;;4952824;28;20042;-61
2023/07/20 01:20:44;;;;;;;3.85;2.33;;;;;;;;;;4974570;28;20046;-63
2023/07/20 01:23:19;;;;;;;4.93;2.33;;;;;;;;;;4963389;28;20034;-61
2023/07/20 01:25:55;;;;;;;4.60;2.08;;;;;;;;;;4965991;28;20050;-64
2023/07/20 01:28:50;;;;;;;2.92;2.20;;;;;;;;;;4973991;28;20055;-62
2023/07/20 01:31:25;;;;;;;4.15;2.10;;;;;;;;;;4964906;28;20051;-61
2023/07/20 01:33:55;;;;;;;3.65;2.13;;;;;;;;;;4973539;28;20043;-62
2023/07/20 01:36:24;;;;;;;3.17;2.50;;;;;;;;;;4969101;28;20043;-62
2023/07/20 01:38:52;;;;;;;6.78;2.30;;;;;;;;;;4971117;28;20031;-62
2023/07/20 01:41:18;;;;;;;6.13;2.30;;;;;;;;;;4951592;28;20034;-61
2023/07/20 01:43:45;;;;;;;4.55;2.20;;;;;;;;;;4940817;28;20042;-61
2023/07/20 01:46:12;;;;;;;3.20;2.00;;;;;;;;;;4942443;28;20051;-63
2023/07/20 01:48:38;;;;;;;3.35;2.30;;;;;;;;;;4987348;28;20045;-62
2023/07/20 01:51:04;;;;;;;5.40;2.50;;;;;;;;;;4972579;28;20537;-63
2023/07/20 01:53:30;;;;;;;3.72;2.08;;;;;;;;;;4941127;28;20053;-62
2023/07/20 01:55:57;;;;;;;3.97;2.28;;;;;;;;;;4952930;28;20035;-62
2023/07/20 01:58:24;;;;;;;3.83;2.40;;;;;;;;;;4949399;28;20042;-62
2023/07/20 02:00:50;;;;;;;4.30;1.98;;;;;;;;;;4968415;28;20047;-63
2023/07/20 02:03:17;;;;;;;4.25;2.17;;;;;;;;;;4970046;28;20039;-62
2023/07/20 02:05:43;;;;;;;3.00;2.38;;;;;;;;;;4937729;28;20046;-62
2023/07/20 02:08:09;;;;;;;3.80;2.20;;;;;;;;;;4956753;28;20045;-63
2023/07/20 02:10:36;;;;;;;3.95;2.22;;;;;;;;;;4969652;28;20050;-62
2023/07/20 02:13:02;;;;;;;4.28;2.22;;;;;;;;;;4972435;28;20030;-63
2023/07/20 02:15:28;;;;;;;5.57;2.72;;;;;;;;;;4958214;28;20062;-62
2023/07/20 02:17:54;;;;;;;5.95;2.45;;;;;;;;;;4951733;28;20047;-62
2023/07/20 02:20:21;;;;;;;3.38;2.40;;;;;;;;;;4952877;28;20039;-61
2023/07/20 02:22:47;;;;;;;4.63;2.67;;;;;;;;;;4955372;28;20046;-63
2023/07/20 02:25:13;;;;;;;5.82;2.30;;;;;;;;;;4936476;28;20031;-61
2023/07/20 02:27:40;;;;;;;6.35;2.65;;;;;;;;;;4971833;28;20302;-62
2023/07/20 02:30:07;;;;;;;3.53;2.47;;;;;;;;;;4951002;28;20483;-62
2023/07/20 02:32:37;;;;;;;5.75;2.40;;;;;;;;;;4968206;28;20061;-63
2023/07/20 02:35:03;;;;;;;6.20;2.53;;;;;;;;;;4975446;28;20402;-61
2023/07/20 02:37:32;;;;;;;4.15;2.08;;;;;;;;;;4950334;28;20336;-62
2023/07/20 02:39:58;;;;;;;4.18;2.60;;;;;;;;;;4968247;28;20051;-63
2023/07/20 02:42:25;;;;;;;5.40;2.75;;;;;;;;;;4963943;28;20329;-63
2023/07/20 02:44:52;;;;;;;3.75;2.53;;;;;;;;;;4969270;28;20054;-64
2023/07/20 02:47:18;;;;;;;5.07;1.88;;;;;;;;;;4964719;28;20067;-63
2023/07/20 02:49:45;;;;;;;5.32;2.30;;;;;;;;;;4963744;28;20403;-63
2023/07/20 02:52:11;;;;;;;5.65;2.20;;;;;;;;;;4970139;28;20046;-62
2023/07/20 02:54:37;;;;;;;3.13;2.15;;;;;;;;;;4936093;28;20065;-63
2023/07/20 02:57:03;;;;;;;3.40;2.30;;;;;;;;;;4951222;28;20030;-63
2023/07/20 02:59:29;;;;;;;3.20;2.00;;;;;;;;;;4950860;28;20046;-63
2023/07/20 03:01:57;;;;;;;7.22;2.33;;;;;;;;;;4968630;28;20081;-61
2023/07/20 03:04:26;;;;;;;4.10;2.10;;;;;;;;;;4966772;28;20050;-63
2023/07/20 03:06:52;;;;;;;3.17;1.98;;;;;;;;;;4950708;28;20047;-62
2023/07/20 03:09:18;;;;;;;4.97;2.00;;;;;;;;;;4951190;28;20030;-62
2023/07/20 03:11:44;;;;;;;3.78;1.80;;;;;;;;;;4961558;28;20043;-63
2023/07/20 03:14:12;;;;;;;3.25;2.03;;;;;;;;;;4971355;28;20043;-62
2023/07/20 03:16:39;;;;;;;4.05;1.85;;;;;;;;;;4967946;28;20059;-63
2023/07/20 03:19:05;;;;;;;3.45;2.33;;;;;;;;;;4973910;28;20031;-62
2023/07/20 03:21:31;;;;;;;2.97;1.98;;;;;;;;;;4964286;28;20540;-61
2023/07/20 03:23:59;;;;;;;4.10;2.10;;;;;;;;;;4951944;28;20105;-63
2023/07/20 03:26:28;;;;;;;3.53;1.90;;;;;;;;;;4952241;28;20045;-63
2023/07/20 03:28:54;;;;;;;4.18;2.03;;;;;;;;;;4950198;28;20043;-63
2023/07/20 03:31:21;;;;;;;2.90;2.30;;;;;;;;;;4950135;28;20043;-62
2023/07/20 03:33:48;;;;;;;3.58;1.92;;;;;;;;;;4947782;28;20052;-62
2023/07/20 03:36:14;;;;;;;2.95;2.03;;;;;;;;;;4970279;28;20049;-62
2023/07/20 03:38:40;;;;;;;4.78;2.10;;;;;;;;;;4966384;28;20047;-63
2023/07/20 03:41:06;;;;;;;3.17;2.08;;;;;;;;;;4967478;28;20038;-63
2023/07/20 03:43:33;;;;;;;2.58;2.00;;;;;;;;;;4950074;28;20043;-62
2023/07/20 03:45:59;;;;;;;4.82;2.40;;;;;;;;;;4970656;28;20051;-63
2023/07/20 03:48:26;;;;;;;3.28;2.20;;;;;;;;;;4952437;28;20065;-63
2023/07/20 03:50:53;;;;;;;4.68;2.67;;;;;;;;;;4954062;28;20042;-63
2023/07/20 03:53:20;;;;;;;2.80;2.10;;;;;;;;;;4969549;28;20045;-61
2023/07/20 03:55:51;;;;;;;4.53;2.60;;;;;;;;;;4951562;28;20066;-63
2023/07/20 03:58:18;;;;;;;5.28;2.25;;;;;;;;;;4965421;28;20030;-62
2023/07/20 04:00:51;;;;;;;6.00;2.22;;;;;;;;;;4949861;28;20023;-63
2023/07/20 04:03:22;;;;;;;3.58;2.22;;;;;;;;;;4952024;28;20041;-62
2023/07/20 04:05:48;;;;;;;3.13;2.20;;;;;;;;;;4952044;28;20034;-62
2023/07/20 04:08:15;;;;;;;3.30;2.28;;;;;;;;;;4967650;28;20209;-64
2023/07/20 04:10:44;;;;;;;4.53;2.10;;;;;;;;;;4965362;28;20522;-63
2023/07/20 04:13:11;;;;;;;3.63;2.22;;;;;;;;;;4959923;28;20061;-62
2023/07/20 04:15:37;;;;;;;4.20;2.45;;;;;;;;;;4938754;28;20046;-64
2023/07/20 04:18:04;;;;;;;4.45;2.70;;;;;;;;;;4974587;28;20054;-63
2023/07/20 04:20:30;;;;;;;2.83;2.28;;;;;;;;;;4970127;28;20417;-62
2023/07/20 04:22:56;;;;;;;3.55;2.20;;;;;;;;;;4968784;28;20050;-62
2023/07/20 04:25:23;;;;;;;5.82;2.63;;;;;;;;;;4951419;28;20054;-61
2023/07/20 04:27:51;;;;;;;4.68;2.60;;;;;;;;;;4968327;28;20483;-62
2023/07/20 04:30:22;;;;;;;3.63;2.38;;;;;;;;;;4916664;28;20043;-61
2023/07/20 04:32:49;;;;;;;6.35;2.42;;;;;;;;;;4927208;28;20066;-62
2023/07/20 04:35:49;;;;;;;4.50;2.75;;;;;;;;;;4978062;28;20039;-61
2023/07/20 04:38:18;;;;;;;4.63;2.38;;;;;;;;;;4959038;28;20045;-60
2023/07/20 04:40:48;;;;;;;10.90;2.47;;;;;;;;;;4935428;28;20716;-60
2023/07/20 04:43:15;;;;;;;5.40;2.35;;;;;;;;;;4975029;28;20047;-59
2023/07/20 04:45:41;;;;;;;4.63;2.47;;;;;;;;;;4971745;28;20454;-62
2023/07/20 04:48:12;;;;;;;5.32;2.72;;;;;;;;;;4970716;28;20043;-62
2023/07/20 04:50:42;;;;;;;4.88;2.55;;;;;;;;;;4970343;28;20062;-62
2023/07/20 04:53:10;;;;;;;4.70;2.58;;;;;;;;;;4954663;28;20035;-62
2023/07/20 04:55:37;;;;;;;4.30;2.90;;;;;;;;;;4967836;28;20058;-62
2023/07/20 04:58:04;;;;;;;3.95;2.22;;;;;;;;;;4974946;28;20046;-61
2023/07/20 05:00:33;;;;;;;4.05;2.45;;;;;;;;;;4937141;28;20054;-61
2023/07/20 05:02:59;;;;;;;4.55;2.25;;;;;;;;;;4974125;28;20046;-62
2023/07/20 05:05:25;;;;;;;3.13;2.30;;;;;;;;;;4952802;28;20065;-62
2023/07/20 05:07:52;;;;;;;4.90;2.50;;;;;;;;;;4969493;28;20036;-62
2023/07/20 05:10:18;;;;;;;4.55;2.20;;;;;;;;;;4968466;28;20402;-62
2023/07/20 05:12:44;;;;;;;3.72;2.40;;;;;;;;;;4966159;28;20051;-63
2023/07/20 05:15:10;;;;;;;5.00;2.40;;;;;;;;;;4968706;28;20047;-62
2023/07/20 05:17:39;;;;;;;5.63;2.35;;;;;;;;;;4985329;28;20625;-62
2023/07/20 05:20:06;;;;;;;4.13;2.25;;;;;;;;;;4975999;28;20024;-61
2023/07/20 05:22:33;;;;;;;3.35;2.30;;;;;;;;;;4973974;28;20848;-61
2023/07/20 05:24:59;;;;;;;3.67;2.28;;;;;;;;;;4971770;28;20046;-62
2023/07/20 05:27:25;;;;;;;4.35;2.65;;;;;;;;;;4972761;28;20034;-61
2023/07/20 05:29:52;;;;;;;5.35;2.90;;;;;;;;;;4957814;28;20034;-62
2023/07/20 05:32:18;;;;;;;4.47;2.60;;;;;;;;;;4971165;28;20039;-62
2023/07/20 05:34:44;;;;;;;4.90;2.08;;;;;;;;;;4970846;28;20062;-62
2023/07/20 05:37:10;;;;;;;4.03;2.10;;;;;;;;;;4961991;28;20030;-61
2023/07/20 05:39:36;;;;;;;4.60;2.35;;;;;;;;;;4957104;28;20046;-61
2023/07/20 05:42:03;;;;;;;4.43;2.10;;;;;;;;;;4956058;28;20385;-63
2023/07/20 05:44:29;;;;;;;4.55;2.20;;;;;;;;;;4974944;28;20073;-61
2023/07/20 05:46:56;;;;;;;4.57;1.95;;;;;;;;;;4968983;28;20030;-62
2023/07/20 05:49:22;;;;;;;4.55;2.20;;;;;;;;;;4937887;28;20035;-61
2023/07/20 05:51:48;;;;;;;5.18;2.28;;;;;;;;;;4960261;28;20030;-61
2023/07/20 05:54:14;;;;;;;5.38;1.95;;;;;;;;;;4966957;28;20033;-61
2023/07/20 05:56:41;;;;;;;3.92;2.00;;;;;;;;;;4969094;28;20026;-62
2023/07/20 05:59:07;;;;;;;6.90;2.40;;;;;;;;;;4941190;28;20057;-61
2023/07/20 06:01:33;;;;;;;4.65;1.83;;;;;;;;;;4937322;28;20050;-62
2023/07/20 06:03:59;;;;;;;6.00;2.42;;;;;;;;;;4975619;28;20038;-61
2023/07/20 06:06:26;;;;;;;4.90;2.20;;;;;;;;;;4973389;28;20058;-61
2023/07/20 06:08:52;;;;;;;8.73;2.05;;;;;;;;;;4970838;28;20038;-61
2023/07/20 06:11:18;;;;;;;4.63;1.90;;;;;;;;;;4967655;28;20042;-61
2023/07/20 06:13:44;;;;;;;4.15;2.00;;;;;;;;;;4962921;28;20051;-62
2023/07/20 06:16:10;;;;;;;4.65;2.30;;;;;;;;;;4961749;28;20093;-62
2023/07/20 06:18:36;;;;;;;3.55;2.10;;;;;;;;;;4966476;28;20421;-61
2023/07/20 06:21:03;;;;;;;5.00;2.50;;;;;;;;;;4950289;28;20359;-61
2023/07/20 06:23:29;;;;;;;3.83;2.03;;;;;;;;;;4967522;28;20142;-61
2023/07/20 06:25:55;;;;;;;4.35;2.20;;;;;;;;;;4950465;28;20046;-62
2023/07/20 06:28:21;;;;;;;3.80;2.08;;;;;;;;;;4967851;28;20038;-61
2023/07/20 06:30:47;;;;;;;3.33;1.80;;;;;;;;;;4949274;28;20084;-61
2023/07/20 06:33:13;;;;;;;7.30;3.40;;;;;;;;;;4969178;28;20046;-61
2023/07/20 06:35:43;;;;;;;3.83;2.10;;;;;;;;;;4970038;28;20050;-62
2023/07/20 06:38:09;;;;;;;4.57;2.00;;;;;;;;;;4965602;28;20055;-61
2023/07/20 06:40:35;;;;;;;6.32;2.45;;;;;;;;;;4962708;28;20046;-61
2023/07/20 06:43:01;;;;;;;4.05;2.03;;;;;;;;;;4966625;28;20037;-62
2023/07/20 06:45:27;;;;;;;2.80;2.08;;;;;;;;;;4966581;28;20070;-61
2023/07/20 06:47:53;;;;;;;4.60;2.10;;;;;;;;;;4969687;28;20061;-61
2023/07/20 06:50:19;;;;;;;3.63;1.77;;;;;;;;;;4964019;28;20050;-61
2023/07/20 06:52:47;;;;;;;4.15;2.30;;;;;;;;;;4966700;28;20026;-62
2023/07/20 06:55:14;;;;;;;4.93;1.98;;;;;;;;;;4965834;28;20031;-61
2023/07/20 06:57:40;;;;;;;3.72;1.90;;;;;;;;;;4967969;28;20054;-61
2023/07/20 07:00:07;;;;;;;4.60;1.95;;;;;;;;;;4962582;28;20039;-61
2023/07/20 07:02:34;;;;;;;2.78;1.92;;;;;;;;;;4964686;28;20062;-62
2023/07/20 07:05:01;;;;;;;4.40;2.13;;;;;;;;;;4970847;28;20026;-61
2023/07/20 07:07:27;;;;;;;4.03;2.00;;;;;;;;;;4965098;28;20122;-62
2023/07/20 07:09:53;;;;;;;3.78;2.30;;;;;;;;;;4951100;28;20110;-61
2023/07/20 07:12:19;;;;;;;6.00;1.95;;;;;;;;;;4966723;28;20050;-61
2023/07/20 07:14:46;;;;;;;3.30;2.17;;;;;;;;;;4975682;28;20041;-60
2023/07/20 07:17:12;;;;;;;4.63;1.73;;;;;;;;;;4933058;28;20054;-61
2023/07/20 07:19:38;;;;;;;4.47;2.10;;;;;;;;;;4953953;28;20038;-61
2023/07/20 07:22:04;;;;;;;4.15;1.67;;;;;;;;;;4975247;28;20046;-62
2023/07/20 07:24:33;;;;;;;3.28;1.85;;;;;;;;;;4950691;28;20046;-62
2023/07/20 07:27:01;;;;;;;4.82;2.80;;;;;;;;;;4969578;28;20482;-61
2023/07/20 07:29:27;;;;;;;6.88;2.15;;;;;;;;;;4934693;28;20727;-61
2023/07/20 07:31:53;;;;;;;4.50;2.05;;;;;;;;;;4947605;28;20041;-61
2023/07/20 07:34:19;;;;;;;3.97;2.05;;;;;;;;;;4967053;28;20394;-61
2023/07/20 07:36:47;;;;;;;4.40;1.70;;;;;;;;;;4948243;28;20042;-62
2023/07/20 07:39:13;;;;;;;4.50;1.98;;;;;;;;;;4964873;28;20045;-61
2023/07/20 07:41:39;;;;;;;3.45;2.10;;;;;;;;;;4969569;28;20058;-61
2023/07/20 07:44:06;;;;;;;5.57;1.67;;;;;;;;;;4972896;28;20042;-62
2023/07/20 07:46:32;;;;;;;3.33;2.10;;;;;;;;;;4959408;28;21436;-61
2023/07/20 07:48:58;;;;;;;4.68;2.30;;;;;;;;;;4976234;28;20144;-62
2023/07/20 07:51:25;;;;;;;2.65;1.90;;;;;;;;;;4950975;28;20054;-62
2023/07/20 07:53:51;;;;;;;5.05;2.10;;;;;;;;;;4974919;28;20034;-61
2023/07/20 07:56:17;;;;;;;4.47;2.22;;;;;;;;;;4966087;28;20143;-61
2023/07/20 07:58:43;;;;;;;5.65;2.15;;;;;;;;;;4957609;28;20495;-61
2023/07/20 08:01:09;;;;;;;4.15;2.30;;;;;;;;;;4971908;28;20037;-62
2023/07/20 08:03:36;;;;;;;4.65;2.38;;;;;;;;;;4966646;28;20069;-62
2023/07/20 08:06:04;;;;;;;4.90;2.53;;;;;;;;;;4966680;28;20039;-62
2023/07/20 08:08:32;;;;;;;4.55;2.67;;;;;;;;;;4952728;28;20039;-62
2023/07/20 08:10:58;;;;;;;3.92;2.47;;;;;;;;;;4973270;28;20057;-62
2023/07/20 08:13:24;;;;;;;5.47;2.40;;;;;;;;;;4968899;28;20494;-61
2023/07/20 08:15:54;;;;;;;4.95;2.67;;;;;;;;;;4973707;28;20030;-62
2023/07/20 08:18:20;;;;;;;4.20;2.58;;;;;;;;;;4955953;28;20046;-62
2023/07/20 08:20:47;;;;;;;4.72;2.70;;;;;;;;;;4972857;28;20039;-61
2023/07/20 08:23:13;;;;;;;3.55;2.45;;;;;;;;;;4970728;28;20034;-60
2023/07/20 08:25:43;;;;;;;4.18;2.67;;;;;;;;;;4968576;28;20402;-62
2023/07/20 08:28:11;;;;;;;3.17;2.55;;;;;;;;;;4968550;28;20030;-62
2023/07/20 08:30:44;;;;;;;3.75;2.45;;;;;;;;;;4964196;28;20077;-61
2023/07/20 08:33:13;;;;;;;5.88;3.25;;;;;;;;;;4967497;28;20050;-62
2023/07/20 08:35:40;;;;;;;5.63;2.58;;;;;;;;;;4965784;28;20046;-62
2023/07/20 08:38:07;;;;;;;3.80;2.35;;;;;;;;;;4968919;28;20042;-61
2023/07/20 08:40:39;;;;;;;4.18;2.70;;;;;;;;;;4967219;28;20055;-61
2023/07/20 08:43:05;;;;;;;4.72;2.45;;;;;;;;;;4929639;28;20037;-62
2023/07/20 08:45:34;;;;;;;6.07;3.13;;;;;;;;;;4967500;28;20047;-62
2023/07/20 08:48:03;;;;;;;3.83;2.30;;;;;;;;;;4973925;28;20038;-61
2023/07/20 08:50:31;;;;;;;4.10;2.60;;;;;;;;;;4966924;28;20049;-62
2023/07/20 08:52:58;;;;;;;5.80;2.65;;;;;;;;;;4966692;28;20063;-63
2023/07/20 08:55:29;;;;;;;3.63;2.60;;;;;;;;;;4947995;28;20049;-61
2023/07/20 08:57:57;;;;;;;3.03;2.40;;;;;;;;;;4969739;28;20046;-62
2023/07/20 09:00:24;;;;;;;5.47;2.47;;;;;;;;;;4953198;28;20047;-60
2023/07/20 09:02:53;;;;;;;4.95;2.60;;;;;;;;;;4966147;28;20047;-61
2023/07/20 09:05:20;;;;;;;2.63;2.22;;;;;;;;;;4984094;28;20046;-62
2023/07/20 09:07:46;;;;;;;3.67;2.42;;;;;;;;;;4966448;28;20039;-62
2023/07/20 09:10:13;;;;;;;4.75;2.40;;;;;;;;;;4970945;28;20039;-61
2023/07/20 09:12:41;;;;;;;4.10;2.17;;;;;;;;;;4969020;28;20642;-62
2023/07/20 09:15:08;;;;;;;5.40;2.45;;;;;;;;;;4953811;28;20047;-61
2023/07/20 09:17:35;;;;;;;5.43;2.80;;;;;;;;;;4935817;28;20047;-61
2023/07/20 09:20:10;;;;;;;5.03;2.72;;;;;;;;;;4973417;28;20496;-62
2023/07/20 09:22:41;;;;;;;5.63;2.40;;;;;;;;;;4964210;28;20402;-62
2023/07/20 09:25:12;;;;;;;2.78;2.20;;;;;;;;;;4972377;28;20107;-62
2023/07/20 09:27:39;;;;;;;3.55;2.00;;;;;;;;;;4971480;28;20055;-62
2023/07/20 09:30:09;;;;;;;3.55;2.30;;;;;;;;;;4974216;28;20066;-62
2023/07/20 09:32:43;;;;;;;5.70;2.20;;;;;;;;;;4966477;28;20046;-62
2023/07/20 09:35:20;;;;;;;5.03;2.60;;;;;;;;;;4955795;28;20047;-62
2023/07/20 09:37:54;;;;;;;3.28;2.00;;;;;;;;;;4977467;28;20054;-62
2023/07/20 09:40:21;;;;;;;3.58;2.30;;;;;;;;;;4981060;28;20050;-62
2023/07/20 09:42:48;;;;;;;3.83;2.35;;;;;;;;;;4961217;28;20049;-62
2023/07/20 09:45:14;;;;;;;3.85;2.38;;;;;;;;;;4942702;28;20435;-63
2023/07/20 09:47:41;;;;;;;4.93;2.17;;;;;;;;;;4976310;28;20046;-62
2023/07/20 09:50:11;;;;;;;4.47;2.25;;;;;;;;;;4972591;28;20042;-63
2023/07/20 09:52:43;;;;;;;5.53;2.80;;;;;;;;;;4970563;28;20065;-62
2023/07/20 09:55:12;;;;;;;5.50;2.40;;;;;;;;;;4969035;28;20478;-61
2023/07/20 09:57:38;;;;;;;3.60;1.92;;;;;;;;;;4967511;28;20054;-62
2023/07/20 10:00:11;;;;;;;2.45;1.90;;;;;;;;;;4969028;28;20038;-64
2023/07/20 10:02:42;;;;;;;3.10;2.15;;;;;;;;;;4967971;28;20051;-62
2023/07/20 10:05:11;;;;;;;7.10;2.25;;;;;;;;;;4954544;28;20387;-62
2023/07/20 10:07:48;;;;;;;3.97;1.90;;;;;;;;;;4940933;28;20061;-61
2023/07/20 10:10:19;;;;;;;3.45;2.20;;;;;;;;;;4967964;28;20386;-63
2023/07/20 10:12:48;;;;;;;3.95;1.92;;;;;;;;;;4963701;28;20054;-62
2023/07/20 10:15:24;;;;;;;;;;;;;;;;;;4953873;28;20051;-61
2023/07/20 10:18:25;;;;;;;3.58;2.10;;;;;;;;;;4969726;28;19920;-62
2023/07/20 10:20:54;;;;;;;4.00;2.03;;;;;;;;;;4930168;29;20040;-61
2023/07/20 10:23:23;;;;;;;6.82;1.80;;;;;;;;;;4960912;28;20043;-61
2023/07/20 10:25:50;;;;;;;3.95;2.08;;;;;;;;;;4970535;28;20038;-62
2023/07/20 10:28:16;;;;;;;5.35;2.00;;;;;;;;;;4967919;28;20035;-62
2023/07/20 10:30:43;;;;;;;3.08;1.95;;;;;;;;;;4967668;28;20039;-60
2023/07/20 10:33:10;;;;;;;2.80;1.98;;;;;;;;;;4949135;28;20043;-62
2023/07/20 10:35:52;;;;;;;2.63;1.92;;;;;;;;;;4967166;28;20390;-64
2023/07/20 10:38:18;;;;;;;4.45;2.00;;;;;;;;;;4974590;28;20045;-63
2023/07/20 10:40:54;;;;;;;2.83;1.65;;;;;;;;;;4968598;28;20035;-63
2023/07/20 10:43:21;;;;;;;4.70;1.73;;;;;;;;;;4965912;28;20035;-62
2023/07/20 10:45:50;;;;;;;3.70;1.80;;;;;;;;;;4973511;28;20039;-63
2023/07/20 10:48:23;;;;;;;3.50;1.75;;;;;;;;;;4966269;28;21658;-63
2023/07/20 10:51:10;;;;;;;4.43;1.70;;;;;;;;;;4961545;28;20041;-63
2023/07/20 10:53:36;;;;;;;2.63;1.88;;;;;;;;;;4964500;28;20042;-62
2023/07/20 10:56:08;;;;;;;2.90;1.85;;;;;;;;;;4966373;28;20042;-62
2023/07/20 10:58:35;;;;;;;3.70;2.05;;;;;;;;;;4964724;28;20051;-62
2023/07/20 11:01:02;;;;;;;4.10;2.05;;;;;;;;;;4966076;28;20031;-62
2023/07/20 11:03:32;;;;;;;3.47;2.00;;;;;;;;;;4963941;28;20053;-64
2023/07/20 11:05:59;;;;;;;3.15;1.67;;;;;;;;;;4962694;28;20053;-62
2023/07/20 11:08:43;;;;;;;3.45;1.90;;;;;;;;;;4967305;28;20050;-63
2023/07/20 11:11:26;;;;;;;2.47;1.70;;;;;;;;;;4947610;28;20038;-62
2023/07/20 11:14:00;;;;;;;2.40;1.67;;;;;;;;;;4963543;28;20486;-63
2023/07/20 11:16:43;;;;;;;2.95;1.50;;;;;;;;;;4945303;28;20034;-62
2023/07/20 11:19:23;;;;;;;3.22;1.42;;;;;;;;;;4965008;28;20054;-65
2023/07/20 11:21:51;;;;;;;5.80;1.58;;;;;;;;;;4964836;28;20046;-60
2023/07/20 11:24:18;;;;;;;4.03;1.50;;;;;;;;;;4968453;28;20517;-62
2023/07/20 11:26:44;;;;;;;1.88;1.25;;;;;;;;;;4964526;28;20426;-62
2023/07/20 11:29:12;;;;;;;2.38;1.50;;;;;;;;;;4951066;28;20062;-63
2023/07/20 11:31:40;;;;;;;3.58;2.80;;;;;;;;;;4967830;28;20071;-62
2023/07/20 11:34:10;;;;;;;1.80;1.30;;;;;;;;;;4967108;28;20049;-63
2023/07/20 11:36:38;;;;;;;1.88;1.30;;;;;;;;;;4951086;28;20046;-62
2023/07/20 11:39:07;;;;;;;2.90;1.55;;;;;;;;;;4962377;28;20054;-63
2023/07/20 11:41:33;;;;;;;2.72;1.70;;;;;;;;;;4965381;28;20042;-63
2023/07/20 11:44:00;;;;;;;3.45;1.50;;;;;;;;;;4967553;28;20034;-62
2023/07/20 11:46:30;;;;;;;3.10;1.83;;;;;;;;;;4964273;28;20043;-62
2023/07/20 11:48:59;;;;;;;2.42;1.45;;;;;;;;;;4968426;28;20342;-63
2023/07/20 11:51:28;;;;;;;3.17;1.52;;;;;;;;;;4900606;28;20039;-62
2023/07/20 11:53:55;;;;;;;3.03;1.92;;;;;;;;;;4951022;28;20039;-62
2023/07/20 11:56:23;;;;;;;2.55;1.48;;;;;;;;;;4933469;28;20042;-63
2023/07/20 11:58:49;;;;;;;1.90;1.60;;;;;;;;;;4918977;28;20516;-63
2023/07/20 12:01:17;;;;;;;5.18;1.90;;;;;;;;;;4964068;28;20038;-62
2023/07/20 12:03:43;;;;;;;3.40;1.48;;;;;;;;;;4968482;28;20057;-62
2023/07/20 12:06:10;;;;;;;2.35;1.40;;;;;;;;;;4948940;28;20509;-63
2023/07/20 12:08:42;;;;;;;1.95;1.67;;;;;;;;;;4963919;28;20553;-63
2023/07/20 12:11:08;;;;;;;4.07;1.50;;;;;;;;;;4953153;28;20035;-63
2023/07/20 12:13:44;;;;;;;2.40;1.60;;;;;;;;;;4964360;28;20498;-62
2023/07/20 12:16:16;;;;;;;2.38;1.48;;;;;;;;;;4965231;28;20037;-62
2023/07/20 12:18:43;;;;;;;3.00;1.50;;;;;;;;;;4968414;28;20041;-63
2023/07/20 12:21:10;;;;;;;3.08;1.60;;;;;;;;;;4965062;28;20050;-63
2023/07/20 12:23:41;;;;;;;3.30;1.50;;;;;;;;;;4949718;28;20042;-63
2023/07/20 12:26:09;;;;;;;4.50;1.30;;;;;;;;;;4970036;28;20030;-63
2023/07/20 12:28:42;;;;;;;2.50;1.35;;;;;;;;;;4950925;28;20042;-64
2023/07/20 12:31:10;;;;;;;1.70;1.45;;;;;;;;;;4968278;28;20050;-63
2023/07/20 12:33:37;;;;;;;1.92;1.30;;;;;;;;;;4945590;28;20050;-63
2023/07/20 12:36:04;;;;;;;2.90;1.20;;;;;;;;;;4936517;28;20050;-63
2023/07/20 12:38:31;;;;;;;4.60;1.60;;;;;;;;;;4935778;28;20035;-62
2023/07/20 12:40:58;;;;;;;2.65;1.30;;;;;;;;;;4952546;28;20039;-62
2023/07/20 12:43:24;;;;;;;1.63;1.48;;;;;;;;;;4964665;28;20383;-62
2023/07/20 12:45:50;;;;;;;3.85;1.83;;;;;;;;;;4971477;28;20046;-63
2023/07/20 12:48:16;;;;;;;2.20;1.60;;;;;;;;;;4953883;28;20053;-63
2023/07/20 12:50:43;;;;;;;3.72;1.48;;;;;;;;;;4954542;28;20490;-63
2023/07/20 12:53:09;;;;;;;2.45;1.35;;;;;;;;;;4955756;28;20039;-63
2023/07/20 12:55:35;;;;;;;4.05;2.50;;;;;;;;;;4954323;28;20043;-63
2023/07/20 12:58:01;;;;;;;2.60;1.60;;;;;;;;;;4974003;28;20045;-62
2023/07/20 13:00:28;;;;;;;3.03;1.60;;;;;;;;;;4942586;28;20042;-62
2023/07/20 13:02:54;;;;;;;2.75;1.33;;;;;;;;;;4972939;28;20043;-63
2023/07/20 13:05:20;;;;;;;2.17;1.30;;;;;;;;;;4955902;28;20082;-62
2023/07/20 13:07:46;;;;;;;2.20;1.38;;;;;;;;;;4975781;28;20031;-62
2023/07/20 13:10:13;;;;;;;2.13;1.50;;;;;;;;;;4974987;28;20057;-62
2023/07/20 13:12:39;;;;;;;1.42;1.30;;;;;;;;;;4979719;28;20143;-64
2023/07/20 13:15:07;;;;;;;1.77;1.35;;;;;;;;;;4934316;29;20042;-63
2023/07/20 13:17:34;;;;;;;2.57;1.50;;;;;;;;;;4967183;28;20049;-64
2023/07/20 13:20:00;;;;;;;1.88;1.35;;;;;;;;;;4971744;28;20298;-63
2023/07/20 13:22:27;;;;;;;1.50;1.38;;;;;;;;;;4968580;28;20043;-64
2023/07/20 13:24:53;;;;;;;2.55;1.40;;;;;;;;;;4953591;28;20043;-64
2023/07/20 13:27:19;;;;;;;3.97;2.78;;;;;;;;;;4969318;28;20047;-63
2023/07/20 13:29:46;;;;;;;2.45;1.35;;;;;;;;;;4969361;28;20039;-63
2023/07/20 13:32:15;;;;;;;2.92;1.60;;;;;;;;;;4972545;28;20042;-64
2023/07/20 13:34:41;;;;;;;2.58;1.30;;;;;;;;;;4953585;28;20062;-63
2023/07/20 13:37:09;;;;;;;4.75;1.98;;;;;;;;;;4945355;28;20045;-64
2023/07/20 13:39:35;;;;;;;2.63;1.50;;;;;;;;;;4969112;28;20947;-64
2023/07/20 13:42:05;;;;;;;3.58;1.48;;;;;;;;;;4957475;28;20034;-64
2023/07/20 13:44:34;;;;;;;1.75;1.45;;;;;;;;;;4970265;28;20050;-64
2023/07/20 13:47:01;;;;;;;3.53;1.65;;;;;;;;;;4974696;28;20039;-64
2023/07/20 13:49:28;;;;;;;1.58;1.20;;;;;;;;;;4972044;28;20069;-64
2023/07/20 13:51:54;;;;;;;2.60;1.30;;;;;;;;;;4934860;28;20043;-65
2023/07/20 13:54:20;;;;;;;1.55;1.25;;;;;;;;;;4953199;28;20058;-64
2023/07/20 13:56:46;;;;;;;3.95;1.60;;;;;;;;;;4972117;28;20046;-64
2023/07/20 13:59:12;;;;;;;2.17;1.40;;;;;;;;;;4956951;28;20046;-63
2023/07/20 14:01:39;;;;;;;1.45;1.13;;;;;;;;;;4970363;28;20035;-63
2023/07/20 14:04:05;;;;;;;2.72;1.50;;;;;;;;;;4972805;28;20054;-64
2023/07/20 14:06:32;;;;;;;6.05;3.72;;;;;;;;;;4968177;28;20122;-65
2023/07/20 14:08:59;;;;;;;2.95;2.58;;;;;;;;;;4974198;28;20529;-64
2023/07/20 14:11:26;;;;;;;2.72;1.30;;;;;;;;;;4941032;28;20046;-64
2023/07/20 14:13:53;;;;;;;1.80;1.48;;;;;;;;;;4954716;28;20115;-64
2023/07/20 14:16:22;;;;;;;1.33;1.13;;;;;;;;;;4950945;28;20035;-63
2023/07/20 14:18:49;;;;;;;3.47;1.50;;;;;;;;;;4958805;28;20042;-64
2023/07/20 14:21:17;;;;;;;3.17;1.40;;;;;;;;;;4967659;28;20046;-63
2023/07/20 14:23:51;;;;;;;3.57;1.53;;;;;;;;;;4969610;28;20502;-63
2023/07/20 14:26:18;;;;;;;3.55;1.33;;;;;;;;;;4951498;28;20305;-63
2023/07/20 14:28:44;;;;;;;2.42;1.40;;;;;;;;;;4972170;28;20069;-64
2023/07/20 14:31:11;;;;;;;2.35;1.33;;;;;;;;;;4953455;28;20453;-64
2023/07/20 14:33:37;;;;;;;2.15;1.27;;;;;;;;;;4967727;28;20494;-63
2023/07/20 14:36:03;;;;;;;4.22;1.40;;;;;;;;;;4969163;28;20050;-63
2023/07/20 14:38:31;;;;;;;3.33;1.83;;;;;;;;;;4968357;28;20034;-63
2023/07/20 14:40:57;;;;;;;1.45;1.30;;;;;;;;;;4954355;28;20038;-64
2023/07/20 14:43:23;;;;;;;3.58;1.40;;;;;;;;;;4965154;28;20061;-65
2023/07/20 14:45:49;;;;;;;3.33;1.77;;;;;;;;;;4954385;28;20030;-65
2023/07/20 14:48:16;;;;;;;4.38;1.50;;;;;;;;;;4969270;28;20326;-65